Thunder radar more information blitzortung!


Radar de pluja more information rain snow radar


Visita la nostra xarxa de llocs de meteo:

Template documentation
and downloads

And another site



No particular awareness of the weather is required.    There are no Weather-warnings

Pagina Historial Weather Underground text

Diari Resum Agost 2, 2017 Unitats:  Mètric    Imperial   Tant
« Previous Dia
SegĂźent Dia »
Diari Setmana Mensual Anual Personalitzada
  Maxima: Minima: Media:
Temperatura: -17.8 °C -5.8 °C -1.2 °C
Punt de rosada: -17.8 °C -9.2 °C -8.1 °C
Humitat: Humidity % 37 % 48 %
Wind Speed: 0 km/h 0 km/h 10.8 km/h
RĂ fegues de vent: 0 km/h - -
Vent:- - SE
Pression baro: 0 hPa 34293.4 hPa -
Precipitacions: 0 mm    
Historical Graphs
 
 
Dades de taula per Agost 2, 2017
Temps Temperatura Punt de rosada Pression baro Vent Wind Speed RĂ fegues de vent Humitat Rainfall Rate (Hourly)
-17.8 °C -17.8 °C 0 hPa Calm     Humidity % 0 mm
00:02 -4.4 °C -6.1 °C 34428.8 hPa SW 6 km/h 6 km/h 84 % 0 mm
00:05 -5.6 °C -7.2 °C 34395 hPa WNW 2.6 km/h 5.1 km/h 83 % 0 mm
00:07 -4.5 °C -6.1 °C 34428.8 hPa WSW 3.7 km/h 3.7 km/h 84 % 0 mm
00:15 -5.7 °C -7.8 °C 34395 hPa NNW 2.6 km/h 5.1 km/h 79 % 0 mm
00:25 -5.6 °C -8 °C 34395 hPa Calm   5.1 km/h 76 % 0 mm
00:35 -5.6 °C -8.1 °C 34361.1 hPa NE 2.6 km/h 2.6 km/h 76 % 0 mm
00:45 -5.7 °C -8.2 °C 34361.1 hPa NE 7.7 km/h 7.7 km/h 76 % 0 mm
00:55 -5.8 °C -8.1 °C 34395 hPa NNE 5.1 km/h 10.3 km/h 77 % 0 mm
01:05 -5.7 °C -8.2 °C 34395 hPa NNE 5.1 km/h 10.3 km/h 75 % 0 mm
01:15 -5.8 °C -8.3 °C 34395 hPa NNE 2.6 km/h 2.6 km/h 75 % 0 mm
01:25 -5.8 °C -8.5 °C 34395 hPa NNE 5.1 km/h 5.1 km/h 74 % 0 mm
01:35 -5.8 °C -8.7 °C 34395 hPa NNE 2.6 km/h 10.3 km/h 73 % 0 mm
01:45 -5.7 °C -8.7 °C 34395 hPa NE 5.1 km/h 10.3 km/h 72 % 0 mm
01:55 -5.7 °C -8.8 °C 34395 hPa NE 2.6 km/h 7.7 km/h 71 % 0 mm
02:05 -5.8 °C -8.8 °C 34395 hPa NE 5.1 km/h 7.7 km/h 71 % 0 mm
02:15 -5.8 °C -8.9 °C 34395 hPa ENE 2.6 km/h 5.1 km/h 71 % 0 mm
02:25 -5.8 °C -8.8 °C 34395 hPa NE 2.6 km/h 5.1 km/h 71 % 0 mm
02:35 -5.7 °C -8.8 °C 34395 hPa NNE 2.6 km/h 7.7 km/h 71 % 0 mm
02:45 -5.6 °C -8.6 °C 34395 hPa North 2.6 km/h 5.1 km/h 71 % 0 mm
02:55 -5.6 °C -8.6 °C 34395 hPa NNW 2.6 km/h 5.1 km/h 71 % 0 mm
03:05 -5.3 °C -8.4 °C 34428.8 hPa Calm   5.1 km/h 71 % 0 mm
03:15 -4.9 °C -8.2 °C 34428.8 hPa NW 2.6 km/h 5.1 km/h 70 % 0 mm
03:25 -5 °C -8.2 °C 34395 hPa SW 5.1 km/h 5.1 km/h 70 % 0 mm
03:35 -4.9 °C -8.1 °C 34428.8 hPa WSW 5.1 km/h 5.1 km/h 70 % 0 mm
03:45 -4.7 °C -7.9 °C 34428.8 hPa Calm   7.7 km/h 70 % 0 mm
03:55 -4.2 °C -7.7 °C 34428.8 hPa SSW 2.6 km/h 5.1 km/h 68 % 0 mm
04:05 -3.9 °C -7.4 °C 34428.8 hPa SW 2.6 km/h 5.1 km/h 68 % 0 mm
04:15 -3.6 °C -7.4 °C 34428.8 hPa SW 2.6 km/h 5.1 km/h 65 % 0 mm
04:25 -3.3 °C -7.5 °C 34462.7 hPa Calm   5.1 km/h 63 % 0 mm
04:35 -3.2 °C -7.6 °C 34428.8 hPa East 2.6 km/h 7.7 km/h 62 % 0 mm
04:45 -2.9 °C -7.4 °C 34428.8 hPa ESE 5.1 km/h 7.7 km/h 61 % 0 mm
04:55 -2.6 °C -7.3 °C 34462.7 hPa East 5.1 km/h 7.7 km/h 60 % 0 mm
05:05 -2.3 °C -7.3 °C 34462.7 hPa NE 5.1 km/h 5.1 km/h 58 % 0 mm
05:15 -1.7 °C -7.1 °C 34462.7 hPa NNE 2.6 km/h 5.1 km/h 56 % 0 mm
05:25 -1.6 °C -7.3 °C 34462.7 hPa NE 5.1 km/h 10.3 km/h 54 % 0 mm
05:35 -1.4 °C -7.5 °C 34428.8 hPa NE 5.1 km/h 12.9 km/h 52 % 0 mm
05:45 -1.1 °C -7.3 °C 34428.8 hPa ENE 7.7 km/h 7.7 km/h 51 % 0 mm
10:47 -1.1 °C -7.3 °C 34428.8 hPa ESE 11.9 km/h 11.9 km/h 51 % 0 mm
10:52 -1.2 °C -7.6 °C 34428.8 hPa East 14 km/h 14 km/h 50 % 0 mm
10:57 -1.2 °C -7.6 °C 34428.8 hPa East 11.9 km/h 11.9 km/h 50 % 0 mm
11:02 -1.1 °C -7.6 °C 34428.8 hPa East 15 km/h 15 km/h 50 % 0 mm
11:07 -1.1 °C -7.6 °C 34395 hPa ENE 15 km/h 15 km/h 50 % 0 mm
11:12 -1.1 °C -7.6 °C 34395 hPa NNE 17.9 km/h 17.9 km/h 50 % 0 mm
11:17 -0.7 °C -7.2 °C 34395 hPa NE 9 km/h 9 km/h 50 % 0 mm
11:22 -0.7 °C -7.5 °C 34395 hPa ESE 19.2 km/h 19.2 km/h 48 % 0 mm
11:27 -0.7 °C -7.6 °C 34395 hPa ENE 20.9 km/h 20.9 km/h 48 % 0 mm
11:32 -0.5 °C -7.3 °C 34395 hPa ENE 10.3 km/h 10.3 km/h 48 % 0 mm
11:37 -0.4 °C -7.4 °C 34395 hPa NNE 15.3 km/h 15.3 km/h 47 % 0 mm
11:42 -0.4 °C -7.4 °C 34395 hPa SSE 17.9 km/h 17.9 km/h 47 % 0 mm
11:47 -0.4 °C -7.6 °C 34395 hPa SE 20.9 km/h 20.9 km/h 46 % 0 mm
11:52 -0.2 °C -7.4 °C 34395 hPa ESE 15.3 km/h 15.3 km/h 46 % 0 mm
12:01 0.3 °C -7 °C 34395 hPa East 14.5 km/h 14.5 km/h 46 % 0 mm
12:06 0.1 °C -7.2 °C 34395 hPa East 15 km/h 15 km/h 46 % 0 mm
12:11 0.3 °C -6.9 °C 34395 hPa ESE 9 km/h 9 km/h 46 % 0 mm
12:16 0.4 °C -7.1 °C 34395 hPa ENE 9 km/h 9 km/h 45 % 0 mm
12:21 0.4 °C -7.1 °C 34395 hPa ENE 15 km/h 15 km/h 45 % 0 mm
12:26 0.5 °C -7 °C 34395 hPa ENE 9 km/h 9 km/h 45 % 0 mm
12:31 0.6 °C -7.3 °C 34395 hPa ENE 29.8 km/h 29.8 km/h 43 % 0 mm
12:36 0.6 °C -7.3 °C 34395 hPa ENE 11.9 km/h 11.9 km/h 43 % 0 mm
12:41 0.6 °C -7.6 °C 34395 hPa ENE 20.9 km/h 20.9 km/h 42 % 0 mm
12:46 0.7 °C -7.4 °C 34395 hPa ESE 15 km/h 15 km/h 42 % 0 mm
12:51 1.1 °C -7.1 °C 34395 hPa South 11.9 km/h 11.9 km/h 42 % 0 mm
12:56 0.9 °C -7.7 °C 34395 hPa ENE 20.9 km/h 20.9 km/h 40 % 0 mm
13:01 0.9 °C -7.4 °C 34395 hPa ESE 8.5 km/h 8.5 km/h 41 % 0 mm
13:06 1.2 °C -7.4 °C 34395 hPa ESE 15 km/h 15 km/h 40 % 0 mm
13:11 1.2 °C -7.4 °C 34395 hPa East 20.9 km/h 20.9 km/h 40 % 0 mm
13:16 1.3 °C -7.3 °C 34395 hPa North 16.1 km/h 16.1 km/h 40 % 0 mm
13:21 1.3 °C -7.6 °C 34395 hPa SE 15 km/h 15 km/h 39 % 0 mm
13:26 1.4 °C -7.4 °C 34395 hPa ESE 23.8 km/h 23.8 km/h 39 % 0 mm
13:31 1.3 °C -7.3 °C 34395 hPa ESE 23.8 km/h 23.8 km/h 40 % 0 mm
13:36 1.3 °C -7.6 °C 34361.1 hPa SE 20.9 km/h 20.9 km/h 39 % 0 mm
13:41 1.4 °C -7.2 °C 34361.1 hPa ESE 17.9 km/h 17.9 km/h 40 % 0 mm
13:46 1.4 °C -7.4 °C 34361.1 hPa ENE 20.9 km/h 20.9 km/h 39 % 0 mm
13:51 1.2 °C -7.9 °C 34395 hPa SE 23.8 km/h 23.8 km/h 38 % 0 mm
13:56 0.9 °C -7.9 °C 34395 hPa East 26.9 km/h 26.9 km/h 39 % 0 mm
14:01 1.1 °C -7.7 °C 34395 hPa East 23.8 km/h 23.8 km/h 39 % 0 mm
14:06 1.3 °C -7.6 °C 34395 hPa SW 9 km/h 9 km/h 39 % 0 mm
14:11 1.3 °C -7.6 °C 34395 hPa SSE 17.9 km/h 17.9 km/h 39 % 0 mm
14:16 1.1 °C -7.8 °C 34395 hPa East 29.8 km/h 29.8 km/h 39 % 0 mm
14:21 1.2 °C -7.6 °C 34395 hPa SE 15 km/h 15 km/h 39 % 0 mm
14:26 0.9 °C -8.2 °C 34395 hPa NNW 17.9 km/h 17.9 km/h 38 % 0 mm
14:31 0.7 °C -8.1 °C 34395 hPa ENE 25.9 km/h 25.9 km/h 39 % 0 mm
14:36 0.6 °C -8.2 °C 34395 hPa ESE 38.8 km/h 38.8 km/h 39 % 0 mm
14:41 0.7 °C -8.1 °C 34395 hPa ESE 28.2 km/h 28.2 km/h 39 % 0 mm
14:46 0.7 °C -8.1 °C 34395 hPa SE 15 km/h 15 km/h 39 % 0 mm
14:51 0.6 °C -8.2 °C 34395 hPa ESE 22.5 km/h 22.5 km/h 39 % 0 mm
14:56 0.5 °C -8.1 °C 34395 hPa East 23.8 km/h 23.8 km/h 40 % 0 mm
15:01 0.5 °C -7.8 °C 34395 hPa East 23.8 km/h 23.8 km/h 41 % 0 mm
15:06 0.4 °C -7.9 °C 34395 hPa ESE 23.8 km/h 23.8 km/h 41 % 0 mm
15:11 0.4 °C -7.9 °C 34395 hPa East 20.9 km/h 20.9 km/h 41 % 0 mm
15:16 0.4 °C -7.7 °C 34395 hPa NNE 41.7 km/h 41.7 km/h 42 % 0 mm
15:21 0.1 °C -7.9 °C 34395 hPa ESE 20.9 km/h 20.9 km/h 42 % 0 mm
15:26 0.2 °C -7.9 °C 34395 hPa ESE 15 km/h 15 km/h 42 % 0 mm
15:31 0.2 °C -7.9 °C 34395 hPa East 17.9 km/h 19.2 km/h 42 % 0 mm
15:36 0.2 °C -7.7 °C 34395 hPa ESE 15 km/h 15 km/h 43 % 0 mm
15:41 0.3 °C -7.6 °C 34395 hPa ESE 26.9 km/h 26.9 km/h 43 % 0 mm
15:46 0.7 °C -7.4 °C 34395 hPa ESE 24.3 km/h 24.3 km/h 42 % 0 mm
15:51 0.8 °C -7.4 °C 34395 hPa ESE 22 km/h 22 km/h 42 % 0 mm
15:56 0.9 °C -7.4 °C 34395 hPa SE 23.8 km/h 23.8 km/h 41 % 0 mm
16:01 1.1 °C -7.3 °C 34395 hPa ESE 18.3 km/h 18.3 km/h 41 % 0 mm
16:06 1.3 °C -7.1 °C 34395 hPa ESE 26.4 km/h 26.4 km/h 41 % 0 mm
16:11 1.1 °C -7.1 °C 34395 hPa NE 23.8 km/h 23.8 km/h 42 % 0 mm
16:16 0.8 °C -7.1 °C 34395 hPa ENE 20.9 km/h 20.9 km/h 43 % 0 mm
16:21 0.7 °C -7.3 °C 34395 hPa East 23.8 km/h 23.8 km/h 43 % 0 mm
16:26 0.7 °C -7.1 °C 34395 hPa East 29.8 km/h 29.8 km/h 44 % 0 mm
16:31 0.5 °C -7 °C 34395 hPa ESE 26.9 km/h 26.9 km/h 45 % 0 mm
16:36 0.6 °C -6.9 °C 34395 hPa ESE 26.9 km/h 26.9 km/h 45 % 0 mm
16:41 0.3 °C -6.8 °C 34395 hPa ESE 17.9 km/h 17.9 km/h 47 % 0 mm
16:46 0.2 °C -6.8 °C 34395 hPa SE 23.3 km/h 23.3 km/h 47 % 0 mm
16:51 0 °C -6.9 °C 34395 hPa ENE 20.9 km/h 20.9 km/h 48 % 0 mm
16:56 -0.2 °C -6.9 °C 34395 hPa ENE 26.9 km/h 26.9 km/h 49 % 0 mm
17:01 -0.1 °C -6.6 °C 34395 hPa SE 15.6 km/h 15.6 km/h 50 % 0 mm
17:06 -0.1 °C -6.6 °C 34395 hPa East 17.9 km/h 17.9 km/h 50 % 0 mm
17:11 0.1 °C -6.4 °C 34395 hPa ENE 15 km/h 15 km/h 50 % 0 mm
17:16 0.3 °C -6.4 °C 34395 hPa NE 11.9 km/h 11.9 km/h 49 % 0 mm
17:21 0.4 °C -6.5 °C 34395 hPa SE 11.9 km/h 11.9 km/h 48 % 0 mm
17:26 0.4 °C -6.7 °C 34395 hPa ESE 17.9 km/h 17.9 km/h 47 % 0 mm
17:31 0.4 °C -6.7 °C 34395 hPa East 11.9 km/h 11.9 km/h 47 % 0 mm
17:36 0.6 °C -7.2 °C 34395 hPa SSE 15 km/h 15 km/h 44 % 0 mm
17:39 0.8 °C -6.8 °C 34395 hPa ESE 15.3 km/h 15.3 km/h 45 % 0 mm
17:44 0.8 °C -6.9 °C 34395 hPa West 9 km/h 9 km/h 44 % 0 mm
17:49 1.4 °C -6.8 °C 34395 hPa WSW 18.3 km/h 18.3 km/h 42 % 0 mm
17:54 1.3 °C -7.1 °C 34395 hPa WSW 29.8 km/h 29.8 km/h 41 % 0 mm
17:59 1.4 °C -7.2 °C 34395 hPa SW 17.9 km/h 17.9 km/h 40 % 0 mm
18:04 1.7 °C -7.2 °C 34361.1 hPa WSW 15 km/h 15 km/h 39 % 0 mm
18:09 1.7 °C -7.4 °C 34361.1 hPa SW 23.8 km/h 23.8 km/h 38 % 0 mm
18:14 1.7 °C -7.7 °C 34361.1 hPa SW 20.9 km/h 20.9 km/h 37 % 0 mm
18:19 1.3 °C -8.1 °C 34428.8 hPa SW 29.8 km/h 29.8 km/h 37 % 0 mm
18:24 1 °C -8.3 °C 34428.8 hPa SSW 36.2 km/h 36.2 km/h 37 % 0 mm
18:29 1 °C -8.3 °C 34428.8 hPa SW 32.8 km/h 32.8 km/h 37 % 0 mm
18:34 1.1 °C -8.2 °C 34395 hPa South 20.9 km/h 20.9 km/h 37 % 0 mm
18:39 1.1 °C -8 °C 34395 hPa SW 26.9 km/h 26.9 km/h 38 % 0 mm
18:44 1.2 °C -7.9 °C 34395 hPa SW 9 km/h 9 km/h 38 % 0 mm
18:49 1.2 °C -7.9 °C 34395 hPa SSW 15 km/h 15 km/h 38 % 0 mm
18:54 1.1 °C -7.9 °C 34395 hPa SSE 9 km/h 9 km/h 38 % 0 mm
18:59 1.1 °C -7.9 °C 34395 hPa SSW 15 km/h 15 km/h 38 % 0 mm
19:04 0.8 °C -7.9 °C 34395 hPa WNW 15 km/h 15 km/h 39 % 0 mm
19:09 0.6 °C -8.2 °C 34395 hPa SW 9.3 km/h 9.3 km/h 39 % 0 mm
19:14 0.6 °C -8.2 °C 34395 hPa SW 7.6 km/h 7.6 km/h 39 % 0 mm
19:15 -2.4 °C -8.9 °C 34395 hPa Calm     49 % 0 mm
19:19 0.4 °C -8.1 °C 34361.1 hPa WSW 7.6 km/h 7.6 km/h 40 % 0 mm
19:24 0.4 °C -8.2 °C 34361.1 hPa NNE 3.1 km/h   40 % 0 mm
19:25 -2.6 °C -9.1 °C 34395 hPa SW 2.6 km/h 5.1 km/h 49 % 0 mm
19:29 0.3 °C -8.2 °C 34361.1 hPa NNE 6 km/h 6 km/h 40 % 0 mm
19:34 0.2 °C -8.3 °C 34327.3 hPa NNW 3.1 km/h 3.1 km/h 40 % 0 mm
19:35 -2.6 °C -9.1 °C 34395 hPa Calm   2.6 km/h 49 % 0 mm
19:39 0.2 °C -8.3 °C 34327.3 hPa SSE 9 km/h 9 km/h 40 % 0 mm
19:44 0.2 °C -8.1 °C 34327.3 hPa ENE 11.9 km/h 11.9 km/h 41 % 0 mm
19:45 -2.6 °C -9.1 °C 34395 hPa Calm     49 % 0 mm
19:49 0.2 °C -8.1 °C 34327.3 hPa ENE 15 km/h 15 km/h 41 % 0 mm
19:54 0.2 °C -8.1 °C 34327.3 hPa ENE 16.6 km/h 16.6 km/h 41 % 0 mm
19:55 -2.5 °C -9 °C 34395 hPa SW 2.6 km/h 5.1 km/h 49 % 0 mm
19:59 0.2 °C -8.3 °C 34327.3 hPa SE 11.9 km/h 11.9 km/h 40 % 0 mm
20:04 0.1 °C -8.4 °C 34293.4 hPa ENE 9 km/h 9 km/h 40 % 0 mm
20:05 -2.7 °C -8.9 °C 34395 hPa WSW 5.1 km/h 5.1 km/h 50 % 0 mm
20:09 0.1 °C -8.4 °C 34293.4 hPa NNE 11.9 km/h 11.9 km/h 40 % 0 mm
20:14 0.1 °C -8.7 °C 34293.4 hPa ENE 11.9 km/h 11.9 km/h 39 % 0 mm
20:15 -2.7 °C -9.1 °C 34395 hPa WSW 2.6 km/h 5.1 km/h 49 % 0 mm
20:19 0.1 °C -8.7 °C 34327.3 hPa East 6 km/h 6 km/h 39 % 0 mm
20:24 0.1 °C -8.7 °C 34327.3 hPa ESE 15.3 km/h 15.3 km/h 39 % 0 mm
20:25 -2.6 °C -9.1 °C 34395 hPa Calm   5.1 km/h 49 % 0 mm
20:29 0.1 °C -8.7 °C 34327.3 hPa ESE 16.1 km/h 16.1 km/h 39 % 0 mm
20:34 0 °C -8.7 °C 34327.3 hPa ESE 15 km/h 15 km/h 39 % 0 mm
20:35 -2.7 °C -8.9 °C 34395 hPa WSW 2.6 km/h 5.1 km/h 50 % 0 mm
20:39 -0.1 °C -8.6 °C 34327.3 hPa East 9 km/h 9 km/h 40 % 0 mm
20:44 -0.1 °C -8.6 °C 34327.3 hPa South 9 km/h 9 km/h 40 % 0 mm
20:45 -3 °C -9.1 °C 34395 hPa WSW 2.6 km/h 5.1 km/h 51 % 0 mm
20:49 -0.2 °C -8.7 °C 34327.3 hPa East 11.9 km/h 11.9 km/h 40 % 0 mm
20:54 -0.2 °C -8.7 °C 34327.3 hPa ESE 9 km/h 9 km/h 40 % 0 mm
20:55 -3.1 °C -9.1 °C 34395 hPa WSW 5.1 km/h 5.1 km/h 51 % 0 mm
20:59 -0.3 °C -8.5 °C 34327.3 hPa South 6 km/h 6 km/h 41 % 0 mm
21:04 -0.3 °C -8.6 °C 34361.1 hPa SW 6 km/h 6 km/h 41 % 0 mm
21:05 -3.2 °C -9.1 °C 34361.1 hPa Calm   5.1 km/h 52 % 0 mm
21:09 -0.4 °C -8.6 °C 34361.1 hPa SSE 11.9 km/h 11.9 km/h 41 % 0 mm
21:14 -0.4 °C -8.7 °C 34361.1 hPa ENE 4.2 km/h 4.2 km/h 41 % 0 mm
21:15 -3.1 °C -9 °C 34361.1 hPa WSW 2.6 km/h 5.1 km/h 52 % 0 mm
21:19 -0.5 °C -8.7 °C 34361.1 hPa ENE 6 km/h 6 km/h 41 % 0 mm
21:24 -0.6 °C -8.8 °C 34361.1 hPa ENE 3.7 km/h   41 % 0 mm
21:25 -3.2 °C -9.1 °C 34361.1 hPa SW 2.6 km/h 7.7 km/h 52 % 0 mm
21:29 -0.7 °C -8.7 °C 34361.1 hPa East 3.7 km/h 3.7 km/h 42 % 0 mm
21:34 -0.7 °C -8.7 °C 34361.1 hPa ENE 6 km/h 6 km/h 42 % 0 mm
21:35 -2.9 °C -8.9 °C 34361.1 hPa WSW 2.6 km/h 5.1 km/h 52 % 0 mm
21:39 -0.8 °C -8.6 °C 34361.1 hPa Calm     43 % 0 mm
21:44 -0.8 °C -8.6 °C 34361.1 hPa Calm     43 % 0 mm
21:45 -3 °C -8.9 °C 34361.1 hPa WSW 2.6 km/h 5.1 km/h 52 % 0 mm
21:49 -0.9 °C -8.7 °C 34361.1 hPa Calm     43 % 0 mm
21:54 -0.9 °C -8.7 °C 34361.1 hPa Calm     43 % 0 mm
21:55 -3 °C -8.9 °C 34361.1 hPa Calm   5.1 km/h 52 % 0 mm
21:59 -0.9 °C -8.7 °C 34361.1 hPa SE 3.1 km/h 3.1 km/h 43 % 0 mm
22:04 -1 °C -8.8 °C 34361.1 hPa ENE 3.1 km/h   43 % 0 mm
22:05 -3.1 °C -9 °C 34361.1 hPa SW 5.1 km/h 7.7 km/h 52 % 0 mm
22:06 -1.1 °C -8.8 °C 34361.1 hPa ENE 3.1 km/h   43 % 0 mm
22:11 -1.1 °C -8.8 °C 34361.1 hPa Calm     43 % 0 mm
22:15 -3.2 °C -8.9 °C 34361.1 hPa Calm   5.1 km/h 53 % 0 mm
22:16 -1.1 °C -8.8 °C 34361.1 hPa Calm     43 % 0 mm
22:21 -1.2 °C -8.7 °C 34361.1 hPa Calm     44 % 0 mm
22:25 -3.3 °C -9.1 °C 34361.1 hPa WSW 2.6 km/h 5.1 km/h 53 % 0 mm
22:26 -1.2 °C -8.8 °C 34361.1 hPa NW 4.2 km/h 4.2 km/h 44 % 0 mm
22:31 -1.3 °C -8.8 °C 34361.1 hPa NW 2.3 km/h   44 % 0 mm
22:35 -3.4 °C -9.1 °C 34395 hPa Calm   5.1 km/h 53 % 0 mm
22:36 -1.4 °C -8.9 °C 34395 hPa Calm     44 % 0 mm
22:41 -1.4 °C -8.9 °C 34395 hPa NW 3.7 km/h   44 % 0 mm
22:45 -3.3 °C -8.9 °C 34395 hPa Calm     54 % 0 mm
22:46 -1.5 °C -9 °C 34395 hPa Calm     44 % 0 mm
22:51 -1.5 °C -9 °C 34428.8 hPa WNW 4.2 km/h   44 % 0 mm
22:55 -3.3 °C -9.1 °C 34361.1 hPa Calm   2.6 km/h 53 % 0 mm
22:56 -1.6 °C -9.1 °C 34428.8 hPa West 6 km/h 6 km/h 44 % 0 mm
23:01 -1.6 °C -8.8 °C 34428.8 hPa Calm     45 % 0 mm
23:05 -3.4 °C -9 °C 34361.1 hPa NNW 2.6 km/h 5.1 km/h 54 % 0 mm
23:06 -1.7 °C -8.9 °C 34395 hPa West 3.1 km/h   45 % 0 mm
23:11 -1.7 °C -8.9 °C 34395 hPa NW 3.1 km/h   45 % 0 mm
23:15 -3.6 °C -9.1 °C 34361.1 hPa North 2.6 km/h 5.1 km/h 54 % 0 mm
23:16 -1.7 °C -8.8 °C 34395 hPa NNW 3.1 km/h   46 % 0 mm
23:21 -1.8 °C -8.9 °C 34395 hPa ENE 3.1 km/h 3.1 km/h 46 % 0 mm
23:25 -3.6 °C -9.2 °C 34361.1 hPa Calm   5.1 km/h 54 % 0 mm
23:26 -1.9 °C -9 °C 34395 hPa SW 3.7 km/h 3.7 km/h 46 % 0 mm
23:31 -2.1 °C -9 °C 34395 hPa Calm     47 % 0 mm
23:35 -3.7 °C -9.2 °C 34361.1 hPa Calm   2.6 km/h 54 % 0 mm
23:36 -2.2 °C -9.1 °C 34395 hPa Calm     47 % 0 mm
23:41 -2.3 °C -9.2 °C 34395 hPa Calm     47 % 0 mm
23:45 -3.7 °C -9.1 °C 34361.1 hPa Calm     55 % 0 mm
23:46 -2.4 °C -9.1 °C 34395 hPa Calm     48 % 0 mm
23:51 -2.4 °C -9.1 °C 34361.1 hPa Calm     48 % 0 mm
23:55 -3.8 °C -9.2 °C 34361.1 hPa NNE 2.6 km/h 2.6 km/h 55 % 0 mm
23:56 -2.4 °C -9.1 °C 34361.1 hPa Calm     48 % 0 mm
Meteo Sesrovires
Elogis d' Weather Underground - 1.5 mb

Guio original per  Jim McMurry - jmcmurry@mwt.net Adaptat per a la plantilla per  Wim van der Kuil - Leuven-Template.eu

Trobareu la nostra informacio del temps tambe a:

Weather Underground

AWEKAS